首页
METAR-TAF:

METAR-TAF

机场 :

Vero Beach Municipal Airport

Vero Beach, 佛罗里达州, 美国

纬度: 27-39-20N, 经度: 080-25-05W, 海拔: 7米

当前天气观测

该预报发布于31分钟前的08:53 UTC
风速3节,风向西南
温度 25°C
湿度 83%
气压 1016 hPa
能見度: 16.1公里
天空无云

METAR: KVRB 010853Z AUTO 22003KT 10SM CLR 25/22 A3000 RMK AO2 SLP158 T02500222 55005

时间: 05:24 (09:24 UTC)

预报

该预报发布于3小时和36分钟前的05:48 UTC
预报有效从01日的 06点(UTC)到 02日的 06点(UTC)
风速5节,风向
能見度: 10公里
多云层高于25000英尺
从 01日的 1400点(UTC)
风速8节,风向东北
能見度: 10公里
散云层高于3000英尺
多云层高于25000英尺
从 01日的 1800点(UTC)
风速15节,风向,有时为21节阵风
能見度: 10公里
散云层高于3500英尺
多云层高于5000英尺
多云层高于25000英尺
附近有阵雨
从 02日的 0200点(UTC)
风速13节,风向,有时为18节阵风
能見度: 10公里
散云层高于3000英尺
多云层高于25000英尺
附近有阵雨

TAF: KVRB 010548Z 0106/0206 19005KT P6SM BKN250 FM011400 05008KT P6SM SCT030 BKN250 FM011800 08015G21KT P6SM VCSH SCT035 BKN050 BKN250 FM020200 09013G18KT P6SM VCSH SCT030 BKN250

超过4000个机场的气象观测和天气预报(METAR&TAF报告)。

可查询的气象台以黄色和红色小点在地图上表示。

将鼠标移到小点上方,可查看气象台名称。

然后点击查看天气观测和预报。

如需切换地图:点击带黑十字的绿色按钮放大地图;点击带横线的绿色按钮缩小地图;或者点击绿色箭头查看邻近地区的地图。


METAR-TAF: